sensor_id;sensor_type;location;lat;lon;timestamp;pressure;altitude;pressure_sealevel;temperature;humidity
21240;BME280;10778;48.962;9.018;2023-04-25T00:00:47;98491.72;;;7.89;93.07
21240;BME280;10778;48.962;9.018;2023-04-25T00:03:13;98489.22;;;7.87;94.26
21240;BME280;10778;48.962;9.018;2023-04-25T00:05:40;98493.09;;;7.83;93.79
21240;BME280;10778;48.962;9.018;2023-04-25T00:08:06;98483.56;;;7.82;94.50
21240;BME280;10778;48.962;9.018;2023-04-25T00:10:31;98487.41;;;7.78;93.65
21240;BME280;10778;48.962;9.018;2023-04-25T00:12:57;98482.03;;;7.79;93.81
21240;BME280;10778;48.962;9.018;2023-04-25T00:15:24;98479.16;;;7.82;94.34
21240;BME280;10778;48.962;9.018;2023-04-25T00:17:50;98481.47;;;7.66;94.54
21240;BME280;10778;48.962;9.018;2023-04-25T00:20:18;98479.69;;;7.66;94.77
21240;BME280;10778;48.962;9.018;2023-04-25T00:22:44;98480.78;;;7.64;95.00
21240;BME280;10778;48.962;9.018;2023-04-25T00:25:10;98474.53;;;7.55;95.88
21240;BME280;10778;48.962;9.018;2023-04-25T00:27:36;98471.38;;;7.51;96.25
21240;BME280;10778;48.962;9.018;2023-04-25T00:30:05;98476.09;;;7.58;96.08
21240;BME280;10778;48.962;9.018;2023-04-25T00:32:31;98474.97;;;7.60;95.50
21240;BME280;10778;48.962;9.018;2023-04-25T00:34:57;98481.03;;;7.51;96.86
21240;BME280;10778;48.962;9.018;2023-04-25T00:37:24;98485.84;;;7.46;97.22
21240;BME280;10778;48.962;9.018;2023-04-25T00:39:50;98484.56;;;7.40;96.69
21240;BME280;10778;48.962;9.018;2023-04-25T00:42:16;98484.44;;;7.42;95.72
21240;BME280;10778;48.962;9.018;2023-04-25T00:44:43;98485.56;;;7.49;96.50
21240;BME280;10778;48.962;9.018;2023-04-25T00:47:11;98484.72;;;7.48;96.42
21240;BME280;10778;48.962;9.018;2023-04-25T00:49:37;98478.53;;;7.49;96.29
21240;BME280;10778;48.962;9.018;2023-04-25T00:52:03;98478.00;;;7.56;95.43
21240;BME280;10778;48.962;9.018;2023-04-25T00:54:30;98469.59;;;7.62;94.68
21240;BME280;10778;48.962;9.018;2023-04-25T00:56:57;98471.25;;;7.53;95.35
21240;BME280;10778;48.962;9.018;2023-04-25T00:59:23;98474.41;;;7.47;95.90
21240;BME280;10778;48.962;9.018;2023-04-25T01:01:49;98467.25;;;7.49;96.37
21240;BME280;10778;48.962;9.018;2023-04-25T01:04:16;98467.47;;;7.36;97.23
21240;BME280;10778;48.962;9.018;2023-04-25T01:06:42;98458.53;;;7.38;97.69
21240;BME280;10778;48.962;9.018;2023-04-25T01:09:08;98456.06;;;7.37;97.35
21240;BME280;10778;48.962;9.018;2023-04-25T01:11:35;98449.31;;;7.44;96.20
21240;BME280;10778;48.962;9.018;2023-04-25T01:14:01;98454.13;;;7.39;97.29
21240;BME280;10778;48.962;9.018;2023-04-25T01:16:27;98459.75;;;7.34;98.50
21240;BME280;10778;48.962;9.018;2023-04-25T01:18:54;98455.78;;;7.40;98.46
21240;BME280;10778;48.962;9.018;2023-04-25T01:21:20;98452.88;;;7.33;98.82
21240;BME280;10778;48.962;9.018;2023-04-25T01:23:47;98456.44;;;7.32;98.30
21240;BME280;10778;48.962;9.018;2023-04-25T01:26:13;98454.19;;;7.18;98.93
21240;BME280;10778;48.962;9.018;2023-04-25T01:28:40;98460.81;;;7.22;98.81
21240;BME280;10778;48.962;9.018;2023-04-25T01:31:07;98454.78;;;7.21;99.44
21240;BME280;10778;48.962;9.018;2023-04-25T01:33:34;98455.16;;;7.17;99.29
21240;BME280;10778;48.962;9.018;2023-04-25T01:36:00;98451.84;;;7.15;100.00
21240;BME280;10778;48.962;9.018;2023-04-25T01:38:27;98451.97;;;7.13;100.00
21240;BME280;10778;48.962;9.018;2023-04-25T01:40:54;98455.25;;;7.05;99.27
21240;BME280;10778;48.962;9.018;2023-04-25T01:43:21;98451.66;;;7.06;100.00
21240;BME280;10778;48.962;9.018;2023-04-25T01:45:49;98454.47;;;7.15;98.76
21240;BME280;10778;48.962;9.018;2023-04-25T01:48:15;98456.84;;;7.28;98.85
21240;BME280;10778;48.962;9.018;2023-04-25T01:50:43;98452.44;;;7.28;99.02
21240;BME280;10778;48.962;9.018;2023-04-25T01:53:13;98445.38;;;7.19;98.88
21240;BME280;10778;48.962;9.018;2023-04-25T01:55:40;98444.28;;;7.11;99.46
21240;BME280;10778;48.962;9.018;2023-04-25T01:58:13;98450.31;;;7.12;99.46
21240;BME280;10778;48.962;9.018;2023-04-25T02:01:05;98446.16;;;7.09;99.46
21240;BME280;10778;48.962;9.018;2023-04-25T02:03:39;98444.50;;;7.08;99.53
21240;BME280;10778;48.962;9.018;2023-04-25T02:06:09;98443.00;;;7.06;97.92
21240;BME280;10778;48.962;9.018;2023-04-25T02:08:40;98443.63;;;7.19;98.88
21240;BME280;10778;48.962;9.018;2023-04-25T02:11:06;98436.84;;;7.17;97.98
21240;BME280;10778;48.962;9.018;2023-04-25T02:13:39;98438.63;;;7.16;98.08
21240;BME280;10778;48.962;9.018;2023-04-25T02:16:31;98446.78;;;7.23;97.35
21240;BME280;10778;48.962;9.018;2023-04-25T02:18:59;98440.53;;;7.14;97.52
21240;BME280;10778;48.962;9.018;2023-04-25T02:21:25;98442.34;;;7.14;97.64
21240;BME280;10778;48.962;9.018;2023-04-25T02:23:52;98445.78;;;7.14;98.84
21240;BME280;10778;48.962;9.018;2023-04-25T02:26:18;98448.00;;;7.19;98.93
21240;BME280;10778;48.962;9.018;2023-04-25T02:28:44;98444.31;;;7.21;99.04
21240;BME280;10778;48.962;9.018;2023-04-25T02:31:10;98438.31;;;7.09;100.00
21240;BME280;10778;48.962;9.018;2023-04-25T02:33:36;98436.53;;;7.10;100.00
21240;BME280;10778;48.962;9.018;2023-04-25T02:36:02;98434.06;;;7.08;100.00
21240;BME280;10778;48.962;9.018;2023-04-25T02:38:28;98434.63;;;7.12;100.00
21240;BME280;10778;48.962;9.018;2023-04-25T02:40:56;98432.69;;;7.14;100.00
21240;BME280;10778;48.962;9.018;2023-04-25T02:43:25;98434.19;;;7.07;100.00
21240;BME280;10778;48.962;9.018;2023-04-25T02:45:51;98436.81;;;7.07;100.00
21240;BME280;10778;48.962;9.018;2023-04-25T02:48:17;98440.69;;;7.13;100.00
21240;BME280;10778;48.962;9.018;2023-04-25T02:50:44;98436.28;;;7.13;100.00
21240;BME280;10778;48.962;9.018;2023-04-25T02:53:10;98425.25;;;7.09;100.00
21240;BME280;10778;48.962;9.018;2023-04-25T02:55:44;98420.72;;;7.11;100.00
21240;BME280;10778;48.962;9.018;2023-04-25T02:58:10;98418.94;;;7.12;100.00
21240;BME280;10778;48.962;9.018;2023-04-25T03:00:50;98419.47;;;7.06;100.00
21240;BME280;10778;48.962;9.018;2023-04-25T03:03:16;98417.50;;;6.98;100.00
21240;BME280;10778;48.962;9.018;2023-04-25T03:05:44;98417.06;;;6.93;100.00
21240;BME280;10778;48.962;9.018;2023-04-25T03:08:11;98424.66;;;6.96;100.00
21240;BME280;10778;48.962;9.018;2023-04-25T03:10:38;98427.09;;;6.88;100.00
21240;BME280;10778;48.962;9.018;2023-04-25T03:13:07;98428.31;;;6.83;100.00
21240;BME280;10778;48.962;9.018;2023-04-25T03:15:34;98417.16;;;6.81;100.00
21240;BME280;10778;48.962;9.018;2023-04-25T03:18:01;98414.28;;;6.85;100.00
21240;BME280;10778;48.962;9.018;2023-04-25T03:20:27;98421.16;;;6.86;100.00
21240;BME280;10778;48.962;9.018;2023-04-25T03:22:53;98418.16;;;6.90;100.00
21240;BME280;10778;48.962;9.018;2023-04-25T03:25:20;98425.69;;;6.83;100.00
21240;BME280;10778;48.962;9.018;2023-04-25T03:27:46;98427.34;;;6.85;100.00
21240;BME280;10778;48.962;9.018;2023-04-25T03:30:12;98422.13;;;6.85;100.00
21240;BME280;10778;48.962;9.018;2023-04-25T03:32:39;98420.91;;;6.89;100.00
21240;BME280;10778;48.962;9.018;2023-04-25T03:35:06;98416.63;;;6.88;100.00
21240;BME280;10778;48.962;9.018;2023-04-25T03:37:32;98414.97;;;6.87;100.00
21240;BME280;10778;48.962;9.018;2023-04-25T03:39:58;98417.44;;;6.78;100.00
21240;BME280;10778;48.962;9.018;2023-04-25T03:42:32;98425.97;;;6.80;100.00
21240;BME280;10778;48.962;9.018;2023-04-25T03:44:58;98418.28;;;6.89;100.00
21240;BME280;10778;48.962;9.018;2023-04-25T03:47:25;98415.00;;;6.96;100.00
21240;BME280;10778;48.962;9.018;2023-04-25T03:49:51;98421.09;;;6.97;100.00
21240;BME280;10778;48.962;9.018;2023-04-25T03:52:21;98417.31;;;6.90;100.00
21240;BME280;10778;48.962;9.018;2023-04-25T03:54:47;98427.25;;;6.86;100.00
21240;BME280;10778;48.962;9.018;2023-04-25T03:57:17;98415.56;;;6.90;100.00
21240;BME280;10778;48.962;9.018;2023-04-25T03:59:43;98413.44;;;6.84;100.00
21240;BME280;10778;48.962;9.018;2023-04-25T04:02:12;98414.72;;;6.90;100.00
21240;BME280;10778;48.962;9.018;2023-04-25T04:04:39;98422.44;;;6.91;100.00
21240;BME280;10778;48.962;9.018;2023-04-25T04:07:06;98428.63;;;6.90;100.00
21240;BME280;10778;48.962;9.018;2023-04-25T04:09:35;98417.06;;;6.93;100.00
21240;BME280;10778;48.962;9.018;2023-04-25T04:12:06;98424.22;;;6.91;100.00
21240;BME280;10778;48.962;9.018;2023-04-25T04:14:33;98430.28;;;6.91;100.00
21240;BME280;10778;48.962;9.018;2023-04-25T04:16:59;98425.16;;;6.90;100.00
21240;BME280;10778;48.962;9.018;2023-04-25T04:19:25;98427.47;;;6.83;100.00
21240;BME280;10778;48.962;9.018;2023-04-25T04:22:02;98431.06;;;6.82;100.00
21240;BME280;10778;48.962;9.018;2023-04-25T04:24:28;98424.44;;;6.78;100.00
21240;BME280;10778;48.962;9.018;2023-04-25T04:26:59;98426.25;;;6.77;100.00
21240;BME280;10778;48.962;9.018;2023-04-25T04:29:45;98427.75;;;6.80;100.00
21240;BME280;10778;48.962;9.018;2023-04-25T04:32:20;98422.91;;;6.75;100.00
21240;BME280;10778;48.962;9.018;2023-04-25T04:34:46;98425.41;;;6.77;100.00
21240;BME280;10778;48.962;9.018;2023-04-25T04:37:14;98441.38;;;6.83;100.00
21240;BME280;10778;48.962;9.018;2023-04-25T04:39:41;98437.69;;;6.86;100.00
21240;BME280;10778;48.962;9.018;2023-04-25T04:42:21;98441.97;;;6.87;100.00
21240;BME280;10778;48.962;9.018;2023-04-25T04:45:00;98445.78;;;6.83;100.00
21240;BME280;10778;48.962;9.018;2023-04-25T04:47:46;98447.63;;;6.92;100.00
21240;BME280;10778;48.962;9.018;2023-04-25T04:50:17;98445.75;;;7.04;100.00
21240;BME280;10778;48.962;9.018;2023-04-25T04:53:04;98445.44;;;6.97;100.00
21240;BME280;10778;48.962;9.018;2023-04-25T04:55:41;98449.06;;;7.06;100.00
21240;BME280;10778;48.962;9.018;2023-04-25T04:58:31;98455.34;;;6.94;99.63
21240;BME280;10778;48.962;9.018;2023-04-25T05:01:06;98457.03;;;7.05;98.68
21240;BME280;10778;48.962;9.018;2023-04-25T05:03:53;98456.09;;;7.06;97.31
21240;BME280;10778;48.962;9.018;2023-04-25T05:06:41;98455.78;;;6.99;97.39
21240;BME280;10778;48.962;9.018;2023-04-25T05:09:41;98456.91;;;7.06;97.09
21240;BME280;10778;48.962;9.018;2023-04-25T05:12:22;98461.16;;;7.07;96.67
21240;BME280;10778;48.962;9.018;2023-04-25T05:14:47;98457.63;;;7.18;95.72
21240;BME280;10778;48.962;9.018;2023-04-25T05:17:32;98455.97;;;7.17;95.95
21240;BME280;10778;48.962;9.018;2023-04-25T05:20:11;98455.84;;;7.19;95.39
21240;BME280;10778;48.962;9.018;2023-04-25T05:22:57;98461.28;;;7.37;95.51
21240;BME280;10778;48.962;9.018;2023-04-25T05:25:59;98461.03;;;7.50;95.12
21240;BME280;10778;48.962;9.018;2023-04-25T05:28:46;98454.28;;;7.57;94.95
21240;BME280;10778;48.962;9.018;2023-04-25T05:31:30;98459.00;;;7.63;95.96
21240;BME280;10778;48.962;9.018;2023-04-25T05:34:02;98451.41;;;7.60;95.95
21240;BME280;10778;48.962;9.018;2023-04-25T05:36:39;98449.91;;;7.58;97.95
21240;BME280;10778;48.962;9.018;2023-04-25T05:39:05;98452.31;;;7.39;97.78
21240;BME280;10778;48.962;9.018;2023-04-25T05:41:57;98453.47;;;7.47;97.22
21240;BME280;10778;48.962;9.018;2023-04-25T05:44:44;98469.41;;;7.44;97.48
21240;BME280;10778;48.962;9.018;2023-04-25T05:47:21;98465.47;;;7.59;96.98
21240;BME280;10778;48.962;9.018;2023-04-25T05:50:14;98468.25;;;7.67;94.87
21240;BME280;10778;48.962;9.018;2023-04-25T05:52:53;98463.72;;;7.99;94.29
21240;BME280;10778;48.962;9.018;2023-04-25T05:55:48;98456.88;;;8.85;88.89
21240;BME280;10778;48.962;9.018;2023-04-25T05:58:25;98458.78;;;9.31;84.92
21240;BME280;10778;48.962;9.018;2023-04-25T06:00:53;98449.16;;;9.21;84.75
21240;BME280;10778;48.962;9.018;2023-04-25T06:03:19;98456.78;;;9.15;85.64
21240;BME280;10778;48.962;9.018;2023-04-25T06:05:45;98456.16;;;8.93;85.76
21240;BME280;10778;48.962;9.018;2023-04-25T06:08:11;98456.84;;;8.95;84.91
21240;BME280;10778;48.962;9.018;2023-04-25T06:10:37;98457.66;;;9.05;83.88
21240;BME280;10778;48.962;9.018;2023-04-25T06:13:04;98464.50;;;8.78;84.67
21240;BME280;10778;48.962;9.018;2023-04-25T06:15:32;98463.94;;;8.85;84.89
21240;BME280;10778;48.962;9.018;2023-04-25T06:18:00;98464.88;;;8.93;84.66
21240;BME280;10778;48.962;9.018;2023-04-25T06:20:26;98462.72;;;9.07;84.83
21240;BME280;10778;48.962;9.018;2023-04-25T06:22:54;98464.28;;;9.00;83.89
21240;BME280;10778;48.962;9.018;2023-04-25T06:25:27;98456.06;;;8.85;84.07
21240;BME280;10778;48.962;9.018;2023-04-25T06:27:54;98456.31;;;8.91;83.70
21240;BME280;10778;48.962;9.018;2023-04-25T06:30:21;98459.63;;;9.21;82.94
21240;BME280;10778;48.962;9.018;2023-04-25T06:32:53;98462.56;;;9.46;82.43
21240;BME280;10778;48.962;9.018;2023-04-25T06:35:20;98464.44;;;8.98;83.16
21240;BME280;10778;48.962;9.018;2023-04-25T06:37:46;98463.56;;;9.07;83.13
21240;BME280;10778;48.962;9.018;2023-04-25T06:40:12;98462.94;;;8.95;84.15
21240;BME280;10778;48.962;9.018;2023-04-25T06:42:39;98462.38;;;8.92;83.70
21240;BME280;10778;48.962;9.018;2023-04-25T06:45:24;98459.94;;;8.90;83.37
21240;BME280;10778;48.962;9.018;2023-04-25T06:47:55;98455.78;;;9.16;83.48
21240;BME280;10778;48.962;9.018;2023-04-25T06:50:21;98457.47;;;9.17;83.69
21240;BME280;10778;48.962;9.018;2023-04-25T06:52:47;98455.69;;;9.07;83.27
21240;BME280;10778;48.962;9.018;2023-04-25T06:55:13;98459.31;;;9.06;83.44
21240;BME280;10778;48.962;9.018;2023-04-25T06:57:58;98464.63;;;9.15;83.74
21240;BME280;10778;48.962;9.018;2023-04-25T07:00:50;98463.09;;;9.22;82.89
21240;BME280;10778;48.962;9.018;2023-04-25T07:03:19;98464.00;;;9.03;83.57
21240;BME280;10778;48.962;9.018;2023-04-25T07:05:46;98462.94;;;8.95;84.12
21240;BME280;10778;48.962;9.018;2023-04-25T07:08:12;98461.00;;;8.98;83.46
21240;BME280;10778;48.962;9.018;2023-04-25T07:10:38;98468.06;;;8.87;83.50
21240;BME280;10778;48.962;9.018;2023-04-25T07:13:04;98474.06;;;8.60;84.42
21240;BME280;10778;48.962;9.018;2023-04-25T07:15:30;98466.63;;;8.65;86.24
21240;BME280;10778;48.962;9.018;2023-04-25T07:17:58;98474.22;;;8.58;86.54
21240;BME280;10778;48.962;9.018;2023-04-25T07:20:24;98475.31;;;8.56;87.06
21240;BME280;10778;48.962;9.018;2023-04-25T07:22:50;98473.53;;;8.56;87.12
21240;BME280;10778;48.962;9.018;2023-04-25T07:25:16;98478.03;;;8.44;86.90
21240;BME280;10778;48.962;9.018;2023-04-25T07:27:43;98480.16;;;8.50;85.92
21240;BME280;10778;48.962;9.018;2023-04-25T07:30:15;98478.63;;;8.58;87.67
21240;BME280;10778;48.962;9.018;2023-04-25T07:32:41;98481.75;;;8.81;87.92
21240;BME280;10778;48.962;9.018;2023-04-25T07:35:08;98482.16;;;8.76;87.04
21240;BME280;10778;48.962;9.018;2023-04-25T07:37:35;98487.81;;;8.91;87.93
21240;BME280;10778;48.962;9.018;2023-04-25T07:40:10;98485.25;;;9.09;87.31
21240;BME280;10778;48.962;9.018;2023-04-25T07:42:42;98481.59;;;8.92;86.11
21240;BME280;10778;48.962;9.018;2023-04-25T07:45:09;98483.38;;;9.30;85.17
21240;BME280;10778;48.962;9.018;2023-04-25T07:47:35;98486.22;;;9.64;85.12
21240;BME280;10778;48.962;9.018;2023-04-25T07:50:02;98480.28;;;9.90;84.58
21240;BME280;10778;48.962;9.018;2023-04-25T07:52:30;98485.69;;;10.07;85.13
21240;BME280;10778;48.962;9.018;2023-04-25T07:55:04;98492.09;;;9.58;82.82
21240;BME280;10778;48.962;9.018;2023-04-25T07:57:40;98496.22;;;9.61;83.47
21240;BME280;10778;48.962;9.018;2023-04-25T08:00:08;98496.72;;;9.92;82.62
21240;BME280;10778;48.962;9.018;2023-04-25T08:02:39;98494.63;;;9.96;81.47
21240;BME280;10778;48.962;9.018;2023-04-25T08:05:09;98493.72;;;10.05;82.98
21240;BME280;10778;48.962;9.018;2023-04-25T08:07:41;98501.22;;;10.00;80.88
21240;BME280;10778;48.962;9.018;2023-04-25T08:10:08;98505.47;;;9.83;82.51
21240;BME280;10778;48.962;9.018;2023-04-25T08:12:34;98516.09;;;9.63;81.93
21240;BME280;10778;48.962;9.018;2023-04-25T08:15:01;98512.06;;;9.41;84.23
21240;BME280;10778;48.962;9.018;2023-04-25T08:17:32;98518.28;;;9.02;84.04
21240;BME280;10778;48.962;9.018;2023-04-25T08:19:58;98520.03;;;9.11;84.86
21240;BME280;10778;48.962;9.018;2023-04-25T08:22:29;98525.63;;;8.89;83.09
21240;BME280;10778;48.962;9.018;2023-04-25T08:25:16;98527.16;;;8.91;84.58
21240;BME280;10778;48.962;9.018;2023-04-25T08:27:43;98527.72;;;8.75;85.97
21240;BME280;10778;48.962;9.018;2023-04-25T08:30:10;98543.03;;;8.80;86.44
21240;BME280;10778;48.962;9.018;2023-04-25T08:32:39;98541.53;;;8.58;86.88
21240;BME280;10778;48.962;9.018;2023-04-25T08:35:35;98544.03;;;8.49;86.89
21240;BME280;10778;48.962;9.018;2023-04-25T08:38:01;98546.94;;;8.56;87.71
21240;BME280;10778;48.962;9.018;2023-04-25T08:40:28;98545.41;;;8.63;88.50
21240;BME280;10778;48.962;9.018;2023-04-25T08:43:01;98552.31;;;8.74;88.09
21240;BME280;10778;48.962;9.018;2023-04-25T08:45:31;98556.72;;;8.84;88.68
21240;BME280;10778;48.962;9.018;2023-04-25T08:47:58;98561.50;;;8.98;90.87
21240;BME280;10778;48.962;9.018;2023-04-25T08:50:24;98560.56;;;8.89;89.83
21240;BME280;10778;48.962;9.018;2023-04-25T08:52:53;98561.25;;;9.01;91.09
21240;BME280;10778;48.962;9.018;2023-04-25T08:55:21;98570.34;;;8.97;92.06
21240;BME280;10778;48.962;9.018;2023-04-25T08:57:51;98562.56;;;9.25;87.94
21240;BME280;10778;48.962;9.018;2023-04-25T09:00:18;98571.97;;;9.18;85.84
21240;BME280;10778;48.962;9.018;2023-04-25T09:02:46;98567.00;;;9.24;86.56
21240;BME280;10778;48.962;9.018;2023-04-25T09:05:13;98578.03;;;9.18;84.84
21240;BME280;10778;48.962;9.018;2023-04-25T09:07:40;98579.38;;;9.42;83.67
21240;BME280;10778;48.962;9.018;2023-04-25T09:10:06;98580.50;;;9.30;85.51
21240;BME280;10778;48.962;9.018;2023-04-25T09:12:35;98584.25;;;9.27;83.96
21240;BME280;10778;48.962;9.018;2023-04-25T09:15:07;98586.88;;;9.17;84.21
21240;BME280;10778;48.962;9.018;2023-04-25T09:17:56;98589.53;;;9.07;88.54
21240;BME280;10778;48.962;9.018;2023-04-25T09:20:22;98593.84;;;8.99;89.72
21240;BME280;10778;48.962;9.018;2023-04-25T09:22:48;98605.59;;;8.65;91.87
21240;BME280;10778;48.962;9.018;2023-04-25T09:25:14;98617.53;;;8.38;96.26
21240;BME280;10778;48.962;9.018;2023-04-25T09:27:52;98630.16;;;7.62;100.00
21240;BME280;10778;48.962;9.018;2023-04-25T09:30:33;98643.50;;;6.95;100.00
21240;BME280;10778;48.962;9.018;2023-04-25T09:33:33;98655.59;;;6.75;100.00
21240;BME280;10778;48.962;9.018;2023-04-25T09:39:02;98665.53;;;6.49;100.00
21240;BME280;10778;48.962;9.018;2023-04-25T09:41:37;98660.88;;;6.64;100.00
21240;BME280;10778;48.962;9.018;2023-04-25T09:44:04;98663.81;;;6.71;100.00
21240;BME280;10778;48.962;9.018;2023-04-25T09:46:35;98665.00;;;6.66;100.00
21240;BME280;10778;48.962;9.018;2023-04-25T09:49:06;98663.22;;;6.67;100.00
21240;BME280;10778;48.962;9.018;2023-04-25T09:51:39;98679.28;;;6.62;100.00
21240;BME280;10778;48.962;9.018;2023-04-25T09:54:06;98687.00;;;6.64;100.00
21240;BME280;10778;48.962;9.018;2023-04-25T09:56:39;98682.13;;;6.59;100.00
21240;BME280;10778;48.962;9.018;2023-04-25T09:59:08;98694.84;;;6.64;100.00
21240;BME280;10778;48.962;9.018;2023-04-25T10:01:37;98706.63;;;6.58;100.00
21240;BME280;10778;48.962;9.018;2023-04-25T10:04:17;98706.97;;;6.53;100.00
21240;BME280;10778;48.962;9.018;2023-04-25T10:06:55;98710.34;;;6.44;100.00
21240;BME280;10778;48.962;9.018;2023-04-25T10:09:25;98717.47;;;6.42;100.00
21240;BME280;10778;48.962;9.018;2023-04-25T10:11:51;98714.41;;;6.25;100.00
21240;BME280;10778;48.962;9.018;2023-04-25T10:14:18;98716.06;;;6.26;100.00
21240;BME280;10778;48.962;9.018;2023-04-25T10:16:45;98715.22;;;6.37;100.00
21240;BME280;10778;48.962;9.018;2023-04-25T10:19:11;98710.56;;;6.41;100.00
21240;BME280;10778;48.962;9.018;2023-04-25T10:21:46;98710.31;;;6.55;100.00
21240;BME280;10778;48.962;9.018;2023-04-25T10:24:14;98714.91;;;6.63;100.00
21240;BME280;10778;48.962;9.018;2023-04-25T10:26:41;98709.72;;;6.52;100.00
21240;BME280;10778;48.962;9.018;2023-04-25T10:29:09;98721.94;;;6.63;100.00
21240;BME280;10778;48.962;9.018;2023-04-25T10:31:44;98718.75;;;6.59;100.00
21240;BME280;10778;48.962;9.018;2023-04-25T10:34:11;98721.34;;;6.59;100.00
21240;BME280;10778;48.962;9.018;2023-04-25T10:36:37;98714.34;;;6.60;100.00
21240;BME280;10778;48.962;9.018;2023-04-25T10:39:06;98723.19;;;6.80;100.00
21240;BME280;10778;48.962;9.018;2023-04-25T10:41:58;98727.72;;;6.78;100.00
21240;BME280;10778;48.962;9.018;2023-04-25T10:44:30;98726.91;;;6.77;100.00
21240;BME280;10778;48.962;9.018;2023-04-25T10:46:59;98730.06;;;6.92;100.00
21240;BME280;10778;48.962;9.018;2023-04-25T10:49:34;98742.28;;;6.92;100.00
21240;BME280;10778;48.962;9.018;2023-04-25T10:54:52;98740.53;;;6.81;100.00
21240;BME280;10778;48.962;9.018;2023-04-25T10:57:41;98745.69;;;6.71;100.00
21240;BME280;10778;48.962;9.018;2023-04-25T11:00:17;98741.41;;;6.70;100.00
21240;BME280;10778;48.962;9.018;2023-04-25T11:02:46;98748.78;;;6.65;100.00
21240;BME280;10778;48.962;9.018;2023-04-25T11:05:36;98759.59;;;6.49;100.00
21240;BME280;10778;48.962;9.018;2023-04-25T11:08:02;98759.59;;;6.49;100.00
21240;BME280;10778;48.962;9.018;2023-04-25T11:10:34;98761.13;;;6.74;100.00
21240;BME280;10778;48.962;9.018;2023-04-25T11:13:04;98762.59;;;6.44;100.00
21240;BME280;10778;48.962;9.018;2023-04-25T11:15:30;98759.25;;;6.53;100.00
21240;BME280;10778;48.962;9.018;2023-04-25T11:17:56;98756.97;;;6.72;100.00
21240;BME280;10778;48.962;9.018;2023-04-25T11:20:25;98760.16;;;6.75;100.00
21240;BME280;10778;48.962;9.018;2023-04-25T11:22:51;98759.25;;;6.76;100.00
21240;BME280;10778;48.962;9.018;2023-04-25T11:25:17;98766.34;;;6.86;100.00
21240;BME280;10778;48.962;9.018;2023-04-25T11:27:51;98766.34;;;6.86;100.00
21240;BME280;10778;48.962;9.018;2023-04-25T11:30:17;98768.44;;;6.92;100.00
21240;BME280;10778;48.962;9.018;2023-04-25T11:32:43;98763.88;;;7.17;100.00
21240;BME280;10778;48.962;9.018;2023-04-25T11:35:10;98762.84;;;6.96;100.00
21240;BME280;10778;48.962;9.018;2023-04-25T11:37:39;98768.44;;;6.92;100.00
21240;BME280;10778;48.962;9.018;2023-04-25T11:40:06;98759.44;;;7.17;100.00
21240;BME280;10778;48.962;9.018;2023-04-25T11:42:32;98764.63;;;7.40;100.00
21240;BME280;10778;48.962;9.018;2023-04-25T11:44:59;98759.56;;;7.48;100.00
21240;BME280;10778;48.962;9.018;2023-04-25T11:47:30;98757.25;;;7.34;100.00
21240;BME280;10778;48.962;9.018;2023-04-25T11:50:00;98758.31;;;7.10;100.00
21240;BME280;10778;48.962;9.018;2023-04-25T11:52:40;98758.06;;;7.46;100.00
21240;BME280;10778;48.962;9.018;2023-04-25T11:55:08;98766.56;;;7.26;100.00
21240;BME280;10778;48.962;9.018;2023-04-25T11:57:34;98762.63;;;7.32;100.00
21240;BME280;10778;48.962;9.018;2023-04-25T12:02:43;98773.38;;;7.72;100.00
21240;BME280;10778;48.962;9.018;2023-04-25T12:05:10;98778.78;;;8.01;100.00
21240;BME280;10778;48.962;9.018;2023-04-25T12:07:37;98775.16;;;8.23;100.00
21240;BME280;10778;48.962;9.018;2023-04-25T12:10:05;98769.84;;;8.35;100.00
21240;BME280;10778;48.962;9.018;2023-04-25T12:12:33;98785.84;;;8.32;100.00
21240;BME280;10778;48.962;9.018;2023-04-25T12:15:24;98781.50;;;8.52;100.00
21240;BME280;10778;48.962;9.018;2023-04-25T12:17:51;98778.47;;;9.07;100.00
21240;BME280;10778;48.962;9.018;2023-04-25T12:20:24;98773.63;;;8.93;98.89
21240;BME280;10778;48.962;9.018;2023-04-25T12:22:51;98775.25;;;8.43;98.34
21240;BME280;10778;48.962;9.018;2023-04-25T12:25:37;98781.03;;;8.37;100.00
21240;BME280;10778;48.962;9.018;2023-04-25T12:28:17;98788.00;;;8.26;100.00
21240;BME280;10778;48.962;9.018;2023-04-25T12:31:05;98791.78;;;8.34;100.00
21240;BME280;10778;48.962;9.018;2023-04-25T12:33:34;98795.31;;;8.23;100.00
21240;BME280;10778;48.962;9.018;2023-04-25T12:36:02;98788.16;;;8.25;100.00
21240;BME280;10778;48.962;9.018;2023-04-25T12:38:31;98793.47;;;8.45;100.00
21240;BME280;10778;48.962;9.018;2023-04-25T12:40:58;98794.44;;;8.13;100.00
21240;BME280;10778;48.962;9.018;2023-04-25T12:43:24;98799.22;;;8.60;100.00
21240;BME280;10778;48.962;9.018;2023-04-25T12:45:51;98796.44;;;8.30;100.00
21240;BME280;10778;48.962;9.018;2023-04-25T12:48:18;98799.66;;;8.34;100.00
21240;BME280;10778;48.962;9.018;2023-04-25T12:50:45;98795.50;;;8.10;100.00
21240;BME280;10778;48.962;9.018;2023-04-25T12:53:16;98804.91;;;8.13;100.00
21240;BME280;10778;48.962;9.018;2023-04-25T12:55:42;98801.81;;;8.29;100.00
21240;BME280;10778;48.962;9.018;2023-04-25T12:58:08;98805.63;;;8.46;100.00
21240;BME280;10778;48.962;9.018;2023-04-25T13:00:34;98804.03;;;8.54;100.00
21240;BME280;10778;48.962;9.018;2023-04-25T13:03:00;98806.00;;;8.62;100.00
21240;BME280;10778;48.962;9.018;2023-04-25T13:05:26;98798.41;;;8.38;100.00
21240;BME280;10778;48.962;9.018;2023-04-25T13:07:52;98806.34;;;8.26;100.00
21240;BME280;10778;48.962;9.018;2023-04-25T13:10:18;98801.91;;;8.48;100.00
21240;BME280;10778;48.962;9.018;2023-04-25T13:12:44;98797.97;;;8.33;99.53
21240;BME280;10778;48.962;9.018;2023-04-25T13:15:11;98792.38;;;8.78;97.08
21240;BME280;10778;48.962;9.018;2023-04-25T13:17:38;98790.63;;;10.35;92.90
21240;BME280;10778;48.962;9.018;2023-04-25T13:20:05;98792.19;;;10.65;90.65
21240;BME280;10778;48.962;9.018;2023-04-25T13:22:36;98801.88;;;10.17;90.27
21240;BME280;10778;48.962;9.018;2023-04-25T13:25:03;98794.22;;;9.96;93.97
21240;BME280;10778;48.962;9.018;2023-04-25T13:27:30;98795.28;;;10.03;91.59
21240;BME280;10778;48.962;9.018;2023-04-25T13:29:58;98795.22;;;10.23;91.50